WMKN/TGG METAR and TAF weather

Enter ICAO airport designator
Station Type Date Time Source
WMKN METAR 2021/09/28 16:00 UTC NOAA

WMKN 281600Z 29003KT 250V330 9999 FEW022 26/25 Q1010


Station Type Date Time Source
WMKN Decoded METAR 2021/09/28 16:00 UTC NOAA

Station name not available
Sep 28, 2021 - 12:00 PM EDT / 2021.09.28 1600 UTC
Wind: from the WNW (290 degrees) at 3 MPH (3 KT) (direction variable):0
Visibility: greater than 7 mile(s):0
Sky conditions: mostly clear
Temperature: 78 F (26 C)
Dew Point: 77 F (25 C)
Relative Humidity: 94%
Pressure (altimeter): 29.83 in. Hg (1010 hPa)
ob: WMKN 281600Z 29003KT 250V330 9999 FEW022 26/25 Q1010
cycle: 16

Station Type Date Time Source
WMKN TAF 2021/09/28 12:00 UTC NOAA

TAF WMKN 281100Z 2812/2912 VRB03KT 9999 FEW022

Example: see airport list